This is the latest recevied weather packets stored in our database for station/object YD2CLX-14. If no packets are shown the sender has not sent any weather packets the latest 1 day(s).
| Time | Temp. | Humidity | Pressure | Rain* | Wind** | Luminosity | Snow |
|---|---|---|---|---|---|---|---|
| 1778035552 | 25° C | 74% | 808.1 hPa | 0 mm | - | - | - |
| 1778035252 | 24.44° C | 74% | 808.1 hPa | 0 mm | - | - | - |
| 1778034952 | 23.89° C | 76% | 808.2 hPa | 0 mm | - | - | - |
| 1778034652 | 25° C | 72% | 808.2 hPa | 0 mm | - | - | - |
| 1778034352 | 24.44° C | 74% | 808.1 hPa | 0 mm | - | - | - |
| 1778034052 | 23.89° C | 73% | 808.2 hPa | 0 mm | - | - | - |
| 1778033752 | 23.89° C | 75% | 808.2 hPa | 0 mm | - | - | - |
| 1778033452 | 23.33° C | 75% | 808.1 hPa | 0 mm | - | - | - |
| 1778033152 | 25.56° C | 70% | 808.2 hPa | 0 mm | - | - | - |
| 1778032852 | 26.11° C | 64% | 808.2 hPa | 0 mm | - | - | - |
| 1778032552 | 25.56° C | 69% | 808.1 hPa | 0 mm | - | - | - |
| 1778032252 | 25.56° C | 68% | 808.2 hPa | 0 mm | - | - | - |
| 1778031952 | 25.56° C | 65% | 808.1 hPa | 0 mm | - | - | - |
| 1778031652 | 25.56° C | 69% | 808.1 hPa | 0 mm | - | - | - |
| 1778031353 | 24.44° C | 70% | 808.1 hPa | 0 mm | - | - | - |
| 1778031052 | 25.56° C | 65% | 808.1 hPa | 0 mm | - | - | - |
| 1778030152 | 24.44° C | 67% | 808 hPa | 0 mm | - | - | - |
| 1778029852 | 23.33° C | 68% | 808 hPa | 0 mm | - | - | - |
| 1778029552 | 23.89° C | 68% | 808 hPa | 0 mm | - | - | - |
| 1778029252 | 23.33° C | 72% | 808 hPa | 0 mm | - | - | - |
| 1778028952 | 22.78° C | 71% | 808 hPa | 0 mm | - | - | - |
| 1778028352 | 21.11° C | 79% | 808 hPa | 0 mm | - | - | - |
| 1778028052 | 20.56° C | 76% | 808 hPa | 0 mm | - | - | - |
| 1778027752 | 20° C | 75% | 807.9 hPa | 0 mm | - | - | - |
| 1778027452 | 19.44° C | 69% | 807.9 hPa | 0 mm | - | - | - |
* Rain latest hour (hover to see other rain measurements)
** Current wind speed in m/s (hover to see current wind gust speed)